Carora, Venezuela
Current Conditions -  °F | °C
As of 8:00 AM on Sunday 21 Dec 2014 (Local Time) from SVBM Reporting Station
Scattered Clouds Scattered Clouds  
Wind Chill: 22°   Ceiling: Unl
Heat Index: 22°   Visibility: 6mi
Dew Point: 19°   Wind: 2mph
Humidity: 83%   Direction: 90°E
Pressure: 30.03"   Gusts: NA
Location:  10.19°N, 70.08°W
Report Text: SVBM 211200Z 09002KT 9999 SCT016 22/19 Q1017
Loading
Personal Weather Stations






























Interactive Weather Map New forecast layout! Learn more

10-Day Weather Forecast

Advertisements
Track Severe Weather on mobile